sensor_id;sensor_type;location;lat;lon;timestamp;P1;durP1;ratioP1;P2;durP2;ratioP2
74945;SDS011;63509;45.250;38.102;2023-07-20T00:02:25;6.72;;;3.30;;
74945;SDS011;63509;45.250;38.102;2023-07-20T00:04:51;6.28;;;3.42;;
74945;SDS011;63509;45.250;38.102;2023-07-20T00:07:17;6.00;;;4.07;;
74945;SDS011;63509;45.250;38.102;2023-07-20T00:09:44;7.20;;;4.88;;
74945;SDS011;63509;45.250;38.102;2023-07-20T00:12:10;5.90;;;4.40;;
74945;SDS011;63509;45.250;38.102;2023-07-20T00:14:36;6.55;;;4.75;;
74945;SDS011;63509;45.250;38.102;2023-07-20T00:17:02;5.10;;;3.10;;
74945;SDS011;63509;45.250;38.102;2023-07-20T00:19:28;6.47;;;4.25;;
74945;SDS011;63509;45.250;38.102;2023-07-20T00:21:56;6.57;;;4.10;;
74945;SDS011;63509;45.250;38.102;2023-07-20T00:24:22;8.05;;;5.15;;
74945;SDS011;63509;45.250;38.102;2023-07-20T00:26:49;5.53;;;3.90;;
74945;SDS011;63509;45.250;38.102;2023-07-20T00:29:15;8.88;;;4.57;;
74945;SDS011;63509;45.250;38.102;2023-07-20T00:31:41;10.02;;;4.57;;
74945;SDS011;63509;45.250;38.102;2023-07-20T00:34:08;6.13;;;4.22;;
74945;SDS011;63509;45.250;38.102;2023-07-20T00:36:34;6.18;;;3.65;;
74945;SDS011;63509;45.250;38.102;2023-07-20T00:39:01;7.38;;;3.85;;
74945;SDS011;63509;45.250;38.102;2023-07-20T00:41:28;8.75;;;4.95;;
74945;SDS011;63509;45.250;38.102;2023-07-20T00:43:55;7.43;;;3.83;;
74945;SDS011;63509;45.250;38.102;2023-07-20T00:46:22;12.93;;;3.95;;
74945;SDS011;63509;45.250;38.102;2023-07-20T00:48:53;6.82;;;3.72;;
74945;SDS011;63509;45.250;38.102;2023-07-20T00:51:20;7.32;;;3.58;;
74945;SDS011;63509;45.250;38.102;2023-07-20T00:53:48;5.18;;;3.25;;
74945;SDS011;63509;45.250;38.102;2023-07-20T00:56:15;5.82;;;4.43;;
74945;SDS011;63509;45.250;38.102;2023-07-20T00:58:42;11.85;;;4.75;;
74945;SDS011;63509;45.250;38.102;2023-07-20T01:01:08;4.95;;;3.03;;
74945;SDS011;63509;45.250;38.102;2023-07-20T01:03:34;6.85;;;3.83;;
74945;SDS011;63509;45.250;38.102;2023-07-20T01:08:38;5.10;;;3.67;;
74945;SDS011;63509;45.250;38.102;2023-07-20T01:11:16;7.95;;;3.95;;
74945;SDS011;63509;45.250;38.102;2023-07-20T01:13:48;6.03;;;3.33;;
74945;SDS011;63509;45.250;38.102;2023-07-20T01:16:16;6.45;;;3.38;;
74945;SDS011;63509;45.250;38.102;2023-07-20T01:18:43;6.50;;;3.70;;
74945;SDS011;63509;45.250;38.102;2023-07-20T01:21:09;7.80;;;3.33;;
74945;SDS011;63509;45.250;38.102;2023-07-20T01:32:17;5.40;;;3.42;;
74945;SDS011;63509;45.250;38.102;2023-07-20T01:34:48;11.63;;;4.30;;
74945;SDS011;63509;45.250;38.102;2023-07-20T01:37:18;5.43;;;3.40;;
74945;SDS011;63509;45.250;38.102;2023-07-20T01:39:45;4.88;;;3.45;;
74945;SDS011;63509;45.250;38.102;2023-07-20T01:42:12;7.28;;;4.63;;
74945;SDS011;63509;45.250;38.102;2023-07-20T01:44:38;6.32;;;3.67;;
74945;SDS011;63509;45.250;38.102;2023-07-20T01:47:04;6.15;;;4.07;;
74945;SDS011;63509;45.250;38.102;2023-07-20T01:49:30;8.07;;;5.43;;
74945;SDS011;63509;45.250;38.102;2023-07-20T01:51:58;4.35;;;2.88;;
74945;SDS011;63509;45.250;38.102;2023-07-20T01:54:24;19.42;;;4.75;;
74945;SDS011;63509;45.250;38.102;2023-07-20T01:56:51;18.58;;;4.47;;
74945;SDS011;63509;45.250;38.102;2023-07-20T01:59:17;5.70;;;3.20;;
74945;SDS011;63509;45.250;38.102;2023-07-20T02:01:43;4.78;;;2.97;;
74945;SDS011;63509;45.250;38.102;2023-07-20T02:04:10;4.78;;;3.28;;
74945;SDS011;63509;45.250;38.102;2023-07-20T02:06:37;7.95;;;4.45;;
74945;SDS011;63509;45.250;38.102;2023-07-20T02:09:03;6.88;;;4.15;;
74945;SDS011;63509;45.250;38.102;2023-07-20T02:11:30;5.13;;;3.60;;
74945;SDS011;63509;45.250;38.102;2023-07-20T02:13:56;4.50;;;3.13;;
74945;SDS011;63509;45.250;38.102;2023-07-20T02:16:22;16.08;;;5.03;;
74945;SDS011;63509;45.250;38.102;2023-07-20T02:18:48;12.98;;;5.30;;
74945;SDS011;63509;45.250;38.102;2023-07-20T02:21:15;10.18;;;5.65;;
74945;SDS011;63509;45.250;38.102;2023-07-20T02:23:41;9.35;;;5.10;;
74945;SDS011;63509;45.250;38.102;2023-07-20T02:26:13;17.20;;;6.47;;
74945;SDS011;63509;45.250;38.102;2023-07-20T02:28:40;16.35;;;9.55;;
74945;SDS011;63509;45.250;38.102;2023-07-20T02:31:10;11.43;;;6.32;;
74945;SDS011;63509;45.250;38.102;2023-07-20T02:33:37;13.15;;;7.88;;
74945;SDS011;63509;45.250;38.102;2023-07-20T02:36:03;14.88;;;6.95;;
74945;SDS011;63509;45.250;38.102;2023-07-20T02:38:29;11.63;;;7.97;;
74945;SDS011;63509;45.250;38.102;2023-07-20T02:40:55;15.80;;;8.30;;
74945;SDS011;63509;45.250;38.102;2023-07-20T02:43:21;14.85;;;8.68;;
74945;SDS011;63509;45.250;38.102;2023-07-20T02:45:48;14.77;;;8.75;;
74945;SDS011;63509;45.250;38.102;2023-07-20T02:48:15;33.20;;;11.23;;
74945;SDS011;63509;45.250;38.102;2023-07-20T02:50:43;23.05;;;10.55;;
74945;SDS011;63509;45.250;38.102;2023-07-20T02:53:09;30.55;;;14.82;;
74945;SDS011;63509;45.250;38.102;2023-07-20T02:55:38;18.10;;;12.10;;
74945;SDS011;63509;45.250;38.102;2023-07-20T02:58:04;12.80;;;6.65;;
74945;SDS011;63509;45.250;38.102;2023-07-20T03:00:30;24.23;;;9.18;;
74945;SDS011;63509;45.250;38.102;2023-07-20T03:02:56;11.52;;;6.05;;
74945;SDS011;63509;45.250;38.102;2023-07-20T03:05:23;13.35;;;6.32;;
74945;SDS011;63509;45.250;38.102;2023-07-20T03:07:53;11.68;;;5.57;;
74945;SDS011;63509;45.250;38.102;2023-07-20T03:10:20;8.85;;;5.82;;
74945;SDS011;63509;45.250;38.102;2023-07-20T03:12:47;11.27;;;5.18;;
74945;SDS011;63509;45.250;38.102;2023-07-20T03:15:13;8.05;;;5.75;;
74945;SDS011;63509;45.250;38.102;2023-07-20T03:17:39;9.73;;;5.43;;
74945;SDS011;63509;45.250;38.102;2023-07-20T03:20:06;9.95;;;6.35;;
74945;SDS011;63509;45.250;38.102;2023-07-20T03:22:35;14.65;;;6.82;;
74945;SDS011;63509;45.250;38.102;2023-07-20T03:25:01;8.80;;;5.68;;
74945;SDS011;63509;45.250;38.102;2023-07-20T03:27:27;7.68;;;4.50;;
74945;SDS011;63509;45.250;38.102;2023-07-20T03:29:54;7.80;;;5.35;;
74945;SDS011;63509;45.250;38.102;2023-07-20T03:32:20;11.63;;;5.72;;
74945;SDS011;63509;45.250;38.102;2023-07-20T03:34:47;8.65;;;5.22;;
74945;SDS011;63509;45.250;38.102;2023-07-20T03:37:13;7.10;;;4.85;;
74945;SDS011;63509;45.250;38.102;2023-07-20T03:39:40;19.75;;;5.93;;
74945;SDS011;63509;45.250;38.102;2023-07-20T03:42:06;14.00;;;5.32;;
74945;SDS011;63509;45.250;38.102;2023-07-20T03:44:33;8.85;;;5.22;;
74945;SDS011;63509;45.250;38.102;2023-07-20T03:46:59;11.13;;;4.78;;
74945;SDS011;63509;45.250;38.102;2023-07-20T03:49:26;8.15;;;4.78;;
74945;SDS011;63509;45.250;38.102;2023-07-20T03:51:52;8.50;;;4.63;;
74945;SDS011;63509;45.250;38.102;2023-07-20T03:54:18;12.77;;;5.05;;
74945;SDS011;63509;45.250;38.102;2023-07-20T03:56:45;5.50;;;3.83;;
74945;SDS011;63509;45.250;38.102;2023-07-20T03:59:11;12.73;;;5.82;;
74945;SDS011;63509;45.250;38.102;2023-07-20T04:01:37;7.47;;;4.90;;
74945;SDS011;63509;45.250;38.102;2023-07-20T04:04:06;11.95;;;6.65;;
74945;SDS011;63509;45.250;38.102;2023-07-20T04:06:35;12.48;;;7.85;;
74945;SDS011;63509;45.250;38.102;2023-07-20T04:09:04;12.40;;;7.72;;
74945;SDS011;63509;45.250;38.102;2023-07-20T04:11:30;10.77;;;6.90;;
74945;SDS011;63509;45.250;38.102;2023-07-20T04:13:59;11.00;;;7.07;;
74945;SDS011;63509;45.250;38.102;2023-07-20T04:16:25;13.45;;;7.20;;
74945;SDS011;63509;45.250;38.102;2023-07-20T04:18:54;9.52;;;7.63;;
74945;SDS011;63509;45.250;38.102;2023-07-20T04:21:21;19.77;;;9.27;;
74945;SDS011;63509;45.250;38.102;2023-07-20T04:23:48;15.45;;;10.48;;
74945;SDS011;63509;45.250;38.102;2023-07-20T04:26:14;23.20;;;12.07;;
74945;SDS011;63509;45.250;38.102;2023-07-20T04:28:41;22.42;;;12.15;;
74945;SDS011;63509;45.250;38.102;2023-07-20T04:31:18;19.45;;;11.32;;
74945;SDS011;63509;45.250;38.102;2023-07-20T04:33:44;25.10;;;13.05;;
74945;SDS011;63509;45.250;38.102;2023-07-20T04:36:11;20.05;;;10.80;;
74945;SDS011;63509;45.250;38.102;2023-07-20T04:38:38;34.50;;;15.27;;
74945;SDS011;63509;45.250;38.102;2023-07-20T04:41:18;32.22;;;14.93;;
74945;SDS011;63509;45.250;38.102;2023-07-20T04:43:48;32.83;;;13.23;;
74945;SDS011;63509;45.250;38.102;2023-07-20T04:46:20;22.52;;;10.82;;
74945;SDS011;63509;45.250;38.102;2023-07-20T04:48:47;15.68;;;8.43;;
74945;SDS011;63509;45.250;38.102;2023-07-20T04:51:16;6.68;;;3.28;;
74945;SDS011;63509;45.250;38.102;2023-07-20T04:53:48;4.65;;;3.13;;
74945;SDS011;63509;45.250;38.102;2023-07-20T04:56:15;6.72;;;4.22;;
74945;SDS011;63509;45.250;38.102;2023-07-20T04:58:41;3.47;;;2.03;;
74945;SDS011;63509;45.250;38.102;2023-07-20T05:01:08;3.70;;;2.08;;
74945;SDS011;63509;45.250;38.102;2023-07-20T05:03:35;10.20;;;2.83;;
74945;SDS011;63509;45.250;38.102;2023-07-20T05:06:01;4.82;;;2.80;;
74945;SDS011;63509;45.250;38.102;2023-07-20T05:08:28;7.05;;;2.70;;
74945;SDS011;63509;45.250;38.102;2023-07-20T05:10:54;5.50;;;2.47;;
74945;SDS011;63509;45.250;38.102;2023-07-20T05:13:20;6.65;;;2.40;;
74945;SDS011;63509;45.250;38.102;2023-07-20T05:15:51;11.05;;;3.58;;
74945;SDS011;63509;45.250;38.102;2023-07-20T05:18:19;6.70;;;3.10;;
74945;SDS011;63509;45.250;38.102;2023-07-20T05:20:46;4.05;;;2.35;;
74945;SDS011;63509;45.250;38.102;2023-07-20T05:23:14;5.25;;;2.47;;
74945;SDS011;63509;45.250;38.102;2023-07-20T05:25:40;3.42;;;2.00;;
74945;SDS011;63509;45.250;38.102;2023-07-20T05:28:07;5.60;;;2.15;;
74945;SDS011;63509;45.250;38.102;2023-07-20T05:30:33;4.55;;;1.50;;
74945;SDS011;63509;45.250;38.102;2023-07-20T05:33:02;6.65;;;2.78;;
74945;SDS011;63509;45.250;38.102;2023-07-20T05:35:28;6.85;;;1.83;;
74945;SDS011;63509;45.250;38.102;2023-07-20T05:37:55;3.20;;;1.52;;
74945;SDS011;63509;45.250;38.102;2023-07-20T05:40:21;3.35;;;1.80;;
74945;SDS011;63509;45.250;38.102;2023-07-20T05:42:48;12.50;;;2.10;;
74945;SDS011;63509;45.250;38.102;2023-07-20T05:45:17;3.70;;;1.40;;
74945;SDS011;63509;45.250;38.102;2023-07-20T05:47:43;5.10;;;2.17;;
74945;SDS011;63509;45.250;38.102;2023-07-20T05:50:10;5.05;;;2.10;;
74945;SDS011;63509;45.250;38.102;2023-07-20T05:52:36;4.63;;;1.65;;
74945;SDS011;63509;45.250;38.102;2023-07-20T05:57:30;3.60;;;1.63;;
74945;SDS011;63509;45.250;38.102;2023-07-20T05:59:56;3.65;;;1.75;;
74945;SDS011;63509;45.250;38.102;2023-07-20T06:02:23;3.20;;;1.67;;
74945;SDS011;63509;45.250;38.102;2023-07-20T06:04:50;3.20;;;1.70;;
74945;SDS011;63509;45.250;38.102;2023-07-20T06:07:16;3.05;;;1.52;;
74945;SDS011;63509;45.250;38.102;2023-07-20T06:09:43;6.93;;;1.58;;
74945;SDS011;63509;45.250;38.102;2023-07-20T06:12:09;4.55;;;1.52;;
74945;SDS011;63509;45.250;38.102;2023-07-20T06:14:36;3.40;;;1.52;;
74945;SDS011;63509;45.250;38.102;2023-07-20T06:17:02;4.70;;;1.48;;
74945;SDS011;63509;45.250;38.102;2023-07-20T06:19:28;6.70;;;1.77;;
74945;SDS011;63509;45.250;38.102;2023-07-20T06:21:54;6.25;;;2.30;;
74945;SDS011;63509;45.250;38.102;2023-07-20T06:24:21;4.75;;;2.17;;
74945;SDS011;63509;45.250;38.102;2023-07-20T06:26:47;3.53;;;1.48;;
74945;SDS011;63509;45.250;38.102;2023-07-20T06:29:15;6.70;;;2.10;;
74945;SDS011;63509;45.250;38.102;2023-07-20T06:31:42;2.72;;;1.40;;
74945;SDS011;63509;45.250;38.102;2023-07-20T06:34:08;16.20;;;1.98;;
74945;SDS011;63509;45.250;38.102;2023-07-20T06:36:34;6.05;;;2.33;;
74945;SDS011;63509;45.250;38.102;2023-07-20T06:39:00;4.40;;;1.45;;
74945;SDS011;63509;45.250;38.102;2023-07-20T06:41:28;2.15;;;1.08;;
74945;SDS011;63509;45.250;38.102;2023-07-20T06:43:54;7.18;;;1.90;;
74945;SDS011;63509;45.250;38.102;2023-07-20T06:46:26;9.95;;;2.45;;
74945;SDS011;63509;45.250;38.102;2023-07-20T06:48:53;11.98;;;2.83;;
74945;SDS011;63509;45.250;38.102;2023-07-20T06:51:22;4.40;;;1.88;;
74945;SDS011;63509;45.250;38.102;2023-07-20T06:53:48;4.18;;;1.55;;
74945;SDS011;63509;45.250;38.102;2023-07-20T06:56:14;3.58;;;1.52;;
74945;SDS011;63509;45.250;38.102;2023-07-20T06:58:41;6.35;;;1.77;;
74945;SDS011;63509;45.250;38.102;2023-07-20T07:01:07;3.13;;;1.40;;
74945;SDS011;63509;45.250;38.102;2023-07-20T07:03:34;7.70;;;2.30;;
74945;SDS011;63509;45.250;38.102;2023-07-20T07:06:02;2.75;;;1.45;;
74945;SDS011;63509;45.250;38.102;2023-07-20T07:08:29;4.75;;;1.58;;
74945;SDS011;63509;45.250;38.102;2023-07-20T07:10:55;3.35;;;1.52;;
74945;SDS011;63509;45.250;38.102;2023-07-20T07:13:21;6.85;;;1.85;;
74945;SDS011;63509;45.250;38.102;2023-07-20T07:15:48;4.95;;;2.03;;
74945;SDS011;63509;45.250;38.102;2023-07-20T07:18:14;3.95;;;1.63;;
74945;SDS011;63509;45.250;38.102;2023-07-20T07:20:41;3.88;;;2.00;;
74945;SDS011;63509;45.250;38.102;2023-07-20T07:23:07;15.68;;;1.73;;
74945;SDS011;63509;45.250;38.102;2023-07-20T07:25:33;7.18;;;2.13;;
74945;SDS011;63509;45.250;38.102;2023-07-20T07:28:00;9.20;;;2.08;;
74945;SDS011;63509;45.250;38.102;2023-07-20T07:30:26;4.35;;;1.15;;
74945;SDS011;63509;45.250;38.102;2023-07-20T07:32:52;3.38;;;1.40;;
74945;SDS011;63509;45.250;38.102;2023-07-20T07:35:18;4.20;;;1.45;;
74945;SDS011;63509;45.250;38.102;2023-07-20T07:37:44;6.47;;;1.95;;
74945;SDS011;63509;45.250;38.102;2023-07-20T07:40:12;3.10;;;1.27;;
74945;SDS011;63509;45.250;38.102;2023-07-20T07:42:38;3.88;;;1.30;;
74945;SDS011;63509;45.250;38.102;2023-07-20T07:45:04;11.70;;;1.58;;
74945;SDS011;63509;45.250;38.102;2023-07-20T07:47:31;2.75;;;1.20;;
74945;SDS011;63509;45.250;38.102;2023-07-20T07:49:57;4.13;;;0.98;;
74945;SDS011;63509;45.250;38.102;2023-07-20T07:52:23;3.25;;;0.68;;
74945;SDS011;63509;45.250;38.102;2023-07-20T07:54:49;2.35;;;0.80;;
74945;SDS011;63509;45.250;38.102;2023-07-20T07:57:15;3.63;;;0.73;;
74945;SDS011;63509;45.250;38.102;2023-07-20T07:59:42;3.13;;;1.02;;
74945;SDS011;63509;45.250;38.102;2023-07-20T08:02:08;2.35;;;1.10;;
74945;SDS011;63509;45.250;38.102;2023-07-20T08:04:34;5.70;;;0.93;;
74945;SDS011;63509;45.250;38.102;2023-07-20T08:07:04;3.40;;;0.82;;
74945;SDS011;63509;45.250;38.102;2023-07-20T08:09:31;2.20;;;1.00;;
74945;SDS011;63509;45.250;38.102;2023-07-20T08:11:57;1.52;;;0.65;;
74945;SDS011;63509;45.250;38.102;2023-07-20T08:14:25;8.05;;;1.30;;
74945;SDS011;63509;45.250;38.102;2023-07-20T08:16:52;2.92;;;1.15;;
74945;SDS011;63509;45.250;38.102;2023-07-20T08:19:19;5.35;;;1.10;;
74945;SDS011;63509;45.250;38.102;2023-07-20T08:21:46;1.83;;;0.93;;
74945;SDS011;63509;45.250;38.102;2023-07-20T08:24:12;4.43;;;0.85;;
74945;SDS011;63509;45.250;38.102;2023-07-20T08:26:38;5.15;;;1.10;;
74945;SDS011;63509;45.250;38.102;2023-07-20T08:29:07;7.50;;;1.35;;
74945;SDS011;63509;45.250;38.102;2023-07-20T08:31:34;3.22;;;0.95;;
74945;SDS011;63509;45.250;38.102;2023-07-20T08:34:01;4.70;;;1.25;;
74945;SDS011;63509;45.250;38.102;2023-07-20T08:36:27;4.57;;;1.00;;
74945;SDS011;63509;45.250;38.102;2023-07-20T08:38:53;4.57;;;1.05;;
74945;SDS011;63509;45.250;38.102;2023-07-20T08:41:19;3.10;;;1.00;;
74945;SDS011;63509;45.250;38.102;2023-07-20T08:43:46;12.30;;;1.83;;
74945;SDS011;63509;45.250;38.102;2023-07-20T08:46:13;2.72;;;1.02;;
74945;SDS011;63509;45.250;38.102;2023-07-20T08:48:40;4.82;;;1.17;;
74945;SDS011;63509;45.250;38.102;2023-07-20T08:51:09;3.33;;;1.35;;
74945;SDS011;63509;45.250;38.102;2023-07-20T08:53:38;5.25;;;1.10;;
74945;SDS011;63509;45.250;38.102;2023-07-20T08:56:04;4.60;;;1.23;;
74945;SDS011;63509;45.250;38.102;2023-07-20T08:58:31;6.22;;;1.67;;
74945;SDS011;63509;45.250;38.102;2023-07-20T09:01:00;2.95;;;1.05;;
74945;SDS011;63509;45.250;38.102;2023-07-20T09:03:27;4.63;;;1.73;;
74945;SDS011;63509;45.250;38.102;2023-07-20T09:05:53;4.93;;;1.27;;
74945;SDS011;63509;45.250;38.102;2023-07-20T09:08:19;7.68;;;1.40;;
74945;SDS011;63509;45.250;38.102;2023-07-20T09:10:46;7.72;;;1.35;;
74945;SDS011;63509;45.250;38.102;2023-07-20T09:13:16;4.80;;;0.90;;
74945;SDS011;63509;45.250;38.102;2023-07-20T09:15:46;4.72;;;1.20;;
74945;SDS011;63509;45.250;38.102;2023-07-20T09:18:22;6.45;;;1.63;;
74945;SDS011;63509;45.250;38.102;2023-07-20T09:21:03;1.80;;;0.90;;
74945;SDS011;63509;45.250;38.102;2023-07-20T09:23:35;2.13;;;1.02;;
74945;SDS011;63509;45.250;38.102;2023-07-20T09:26:11;3.00;;;1.23;;
74945;SDS011;63509;45.250;38.102;2023-07-20T09:28:42;2.38;;;1.00;;
74945;SDS011;63509;45.250;38.102;2023-07-20T09:31:16;4.90;;;1.10;;
74945;SDS011;63509;45.250;38.102;2023-07-20T09:33:44;8.40;;;1.45;;
74945;SDS011;63509;45.250;38.102;2023-07-20T09:36:14;7.10;;;1.08;;
74945;SDS011;63509;45.250;38.102;2023-07-20T09:38:43;8.15;;;1.50;;
74945;SDS011;63509;45.250;38.102;2023-07-20T09:41:14;3.55;;;1.30;;
74945;SDS011;63509;45.250;38.102;2023-07-20T09:43:41;5.22;;;1.13;;
74945;SDS011;63509;45.250;38.102;2023-07-20T09:46:08;4.68;;;1.58;;
74945;SDS011;63509;45.250;38.102;2023-07-20T09:48:34;5.47;;;1.15;;
74945;SDS011;63509;45.250;38.102;2023-07-20T09:51:00;2.08;;;1.10;;
74945;SDS011;63509;45.250;38.102;2023-07-20T09:53:32;6.18;;;1.83;;
74945;SDS011;63509;45.250;38.102;2023-07-20T09:58:28;4.68;;;1.35;;
74945;SDS011;63509;45.250;38.102;2023-07-20T10:00:57;3.30;;;0.98;;
74945;SDS011;63509;45.250;38.102;2023-07-20T10:03:29;14.00;;;1.88;;
74945;SDS011;63509;45.250;38.102;2023-07-20T10:05:56;2.88;;;1.00;;
74945;SDS011;63509;45.250;38.102;2023-07-20T10:08:29;3.05;;;1.05;;
74945;SDS011;63509;45.250;38.102;2023-07-20T10:10:56;8.27;;;1.15;;
74945;SDS011;63509;45.250;38.102;2023-07-20T10:13:27;1.77;;;0.90;;
74945;SDS011;63509;45.250;38.102;2023-07-20T10:16:10;2.05;;;0.82;;
74945;SDS011;63509;45.250;38.102;2023-07-20T10:18:59;4.90;;;0.80;;
74945;SDS011;63509;45.250;38.102;2023-07-20T10:21:56;2.33;;;0.95;;
74945;SDS011;63509;45.250;38.102;2023-07-20T10:24:29;2.33;;;0.95;;
74945;SDS011;63509;45.250;38.102;2023-07-20T10:26:57;2.70;;;1.05;;
74945;SDS011;63509;45.250;38.102;2023-07-20T10:29:24;2.33;;;0.98;;
74945;SDS011;63509;45.250;38.102;2023-07-20T10:31:53;2.13;;;0.88;;
74945;SDS011;63509;45.250;38.102;2023-07-20T10:34:20;3.00;;;0.95;;
74945;SDS011;63509;45.250;38.102;2023-07-20T10:36:47;2.40;;;0.68;;
74945;SDS011;63509;45.250;38.102;2023-07-20T10:39:27;3.17;;;1.02;;
74945;SDS011;63509;45.250;38.102;2023-07-20T10:42:00;2.97;;;0.90;;
74945;SDS011;63509;45.250;38.102;2023-07-20T10:44:27;5.03;;;1.70;;
74945;SDS011;63509;45.250;38.102;2023-07-20T10:46:58;12.98;;;1.40;;
74945;SDS011;63509;45.250;38.102;2023-07-20T10:49:26;3.75;;;1.33;;
74945;SDS011;63509;45.250;38.102;2023-07-20T10:51:57;6.05;;;0.90;;
74945;SDS011;63509;45.250;38.102;2023-07-20T10:56:54;2.03;;;1.00;;
74945;SDS011;63509;45.250;38.102;2023-07-20T11:01:57;2.95;;;1.08;;
74945;SDS011;63509;45.250;38.102;2023-07-20T11:04:39;4.35;;;1.10;;
74945;SDS011;63509;45.250;38.102;2023-07-20T11:07:07;2.20;;;0.93;;
74945;SDS011;63509;45.250;38.102;2023-07-20T11:09:34;2.40;;;1.25;;
74945;SDS011;63509;45.250;38.102;2023-07-20T11:12:10;2.13;;;0.90;;
74945;SDS011;63509;45.250;38.102;2023-07-20T11:14:41;2.10;;;0.90;;
74945;SDS011;63509;45.250;38.102;2023-07-20T11:17:20;4.47;;;0.75;;
74945;SDS011;63509;45.250;38.102;2023-07-20T11:19:55;2.67;;;0.82;;
74945;SDS011;63509;45.250;38.102;2023-07-20T11:22:22;7.32;;;1.50;;
74945;SDS011;63509;45.250;38.102;2023-07-20T11:24:49;5.43;;;1.30;;
74945;SDS011;63509;45.250;38.102;2023-07-20T11:27:16;5.60;;;1.00;;
74945;SDS011;63509;45.250;38.102;2023-07-20T11:29:45;2.90;;;0.82;;
74945;SDS011;63509;45.250;38.102;2023-07-20T11:32:12;3.33;;;0.82;;
74945;SDS011;63509;45.250;38.102;2023-07-20T11:34:38;2.95;;;1.08;;
74945;SDS011;63509;45.250;38.102;2023-07-20T11:37:05;2.60;;;0.70;;
74945;SDS011;63509;45.250;38.102;2023-07-20T11:39:32;13.65;;;1.40;;
74945;SDS011;63509;45.250;38.102;2023-07-20T11:41:58;2.65;;;1.20;;
74945;SDS011;63509;45.250;38.102;2023-07-20T11:44:26;3.72;;;1.05;;
74945;SDS011;63509;45.250;38.102;2023-07-20T11:47:02;2.40;;;1.00;;
74945;SDS011;63509;45.250;38.102;2023-07-20T11:49:30;2.00;;;0.90;;
74945;SDS011;63509;45.250;38.102;2023-07-20T11:52:02;2.05;;;0.77;;
74945;SDS011;63509;45.250;38.102;2023-07-20T11:54:30;8.57;;;1.63;;
74945;SDS011;63509;45.250;38.102;2023-07-20T11:57:00;1.95;;;0.80;;
74945;SDS011;63509;45.250;38.102;2023-07-20T11:59:27;2.97;;;1.00;;
74945;SDS011;63509;45.250;38.102;2023-07-20T12:01:53;5.47;;;1.13;;
74945;SDS011;63509;45.250;38.102;2023-07-20T12:04:19;4.50;;;1.10;;
74945;SDS011;63509;45.250;38.102;2023-07-20T12:06:48;2.65;;;0.93;;
74945;SDS011;63509;45.250;38.102;2023-07-20T12:09:16;6.90;;;1.58;;
74945;SDS011;63509;45.250;38.102;2023-07-20T12:11:43;2.40;;;0.98;;
74945;SDS011;63509;45.250;38.102;2023-07-20T12:14:13;4.35;;;1.20;;
74945;SDS011;63509;45.250;38.102;2023-07-20T12:16:40;5.60;;;1.20;;
74945;SDS011;63509;45.250;38.102;2023-07-20T12:19:07;2.40;;;0.95;;
74945;SDS011;63509;45.250;38.102;2023-07-20T12:21:35;2.97;;;1.05;;
74945;SDS011;63509;45.250;38.102;2023-07-20T12:24:03;3.10;;;1.20;;
74945;SDS011;63509;45.250;38.102;2023-07-20T12:26:30;1.95;;;0.93;;
74945;SDS011;63509;45.250;38.102;2023-07-20T12:28:58;3.25;;;1.33;;
74945;SDS011;63509;45.250;38.102;2023-07-20T12:31:25;3.78;;;1.08;;
74945;SDS011;63509;45.250;38.102;2023-07-20T12:34:01;2.75;;;1.00;;
74945;SDS011;63509;45.250;38.102;2023-07-20T12:36:28;2.22;;;1.05;;
74945;SDS011;63509;45.250;38.102;2023-07-20T12:38:54;2.13;;;0.93;;
74945;SDS011;63509;45.250;38.102;2023-07-20T12:41:20;4.85;;;1.10;;
74945;SDS011;63509;45.250;38.102;2023-07-20T12:43:46;2.58;;;0.88;;
74945;SDS011;63509;45.250;38.102;2023-07-20T12:48:40;2.38;;;0.90;;
74945;SDS011;63509;45.250;38.102;2023-07-20T12:51:07;3.40;;;1.10;;
74945;SDS011;63509;45.250;38.102;2023-07-20T12:53:34;9.13;;;1.98;;
74945;SDS011;63509;45.250;38.102;2023-07-20T12:56:01;3.08;;;1.23;;
74945;SDS011;63509;45.250;38.102;2023-07-20T12:58:28;2.63;;;1.52;;
74945;SDS011;63509;45.250;38.102;2023-07-20T13:00:54;2.38;;;1.00;;
74945;SDS011;63509;45.250;38.102;2023-07-20T13:03:23;5.40;;;1.50;;
74945;SDS011;63509;45.250;38.102;2023-07-20T13:05:50;2.72;;;0.90;;
74945;SDS011;63509;45.250;38.102;2023-07-20T13:08:16;1.70;;;0.90;;
74945;SDS011;63509;45.250;38.102;2023-07-20T13:10:43;3.40;;;1.60;;
74945;SDS011;63509;45.250;38.102;2023-07-20T13:13:10;3.47;;;1.13;;
74945;SDS011;63509;45.250;38.102;2023-07-20T13:15:43;4.55;;;1.63;;
74945;SDS011;63509;45.250;38.102;2023-07-20T13:18:11;4.72;;;1.67;;
74945;SDS011;63509;45.250;38.102;2023-07-20T13:20:37;4.10;;;1.40;;
74945;SDS011;63509;45.250;38.102;2023-07-20T13:23:04;3.85;;;1.25;;
74945;SDS011;63509;45.250;38.102;2023-07-20T13:25:31;4.22;;;1.30;;
74945;SDS011;63509;45.250;38.102;2023-07-20T13:27:57;3.85;;;1.27;;
74945;SDS011;63509;45.250;38.102;2023-07-20T13:30:23;3.60;;;1.23;;
74945;SDS011;63509;45.250;38.102;2023-07-20T13:32:50;2.55;;;1.17;;
74945;SDS011;63509;45.250;38.102;2023-07-20T13:35:16;2.13;;;1.02;;
74945;SDS011;63509;45.250;38.102;2023-07-20T13:37:43;3.08;;;1.33;;
74945;SDS011;63509;45.250;38.102;2023-07-20T13:40:09;7.07;;;1.85;;
74945;SDS011;63509;45.250;38.102;2023-07-20T13:42:39;4.00;;;1.60;;
74945;SDS011;63509;45.250;38.102;2023-07-20T13:45:09;2.95;;;1.33;;
74945;SDS011;63509;45.250;38.102;2023-07-20T13:47:35;3.03;;;1.13;;
74945;SDS011;63509;45.250;38.102;2023-07-20T13:50:01;2.30;;;1.27;;
74945;SDS011;63509;45.250;38.102;2023-07-20T13:52:28;2.28;;;1.05;;
74945;SDS011;63509;45.250;38.102;2023-07-20T13:54:54;4.30;;;1.50;;
74945;SDS011;63509;45.250;38.102;2023-07-20T13:57:20;3.13;;;1.55;;
74945;SDS011;63509;45.250;38.102;2023-07-20T13:59:49;3.33;;;1.17;;
74945;SDS011;63509;45.250;38.102;2023-07-20T14:02:15;3.30;;;1.42;;
74945;SDS011;63509;45.250;38.102;2023-07-20T14:04:41;7.68;;;1.35;;
74945;SDS011;63509;45.250;38.102;2023-07-20T14:07:07;4.75;;;1.25;;
74945;SDS011;63509;45.250;38.102;2023-07-20T14:09:33;5.13;;;1.67;;
74945;SDS011;63509;45.250;38.102;2023-07-20T14:11:59;2.38;;;1.17;;
74945;SDS011;63509;45.250;38.102;2023-07-20T14:14:26;5.22;;;1.00;;
74945;SDS011;63509;45.250;38.102;2023-07-20T14:16:52;2.53;;;0.93;;
74945;SDS011;63509;45.250;38.102;2023-07-20T14:19:18;3.40;;;1.13;;
74945;SDS011;63509;45.250;38.102;2023-07-20T14:21:44;1.88;;;1.10;;
74945;SDS011;63509;45.250;38.102;2023-07-20T14:24:11;3.30;;;1.52;;
74945;SDS011;63509;45.250;38.102;2023-07-20T14:26:37;5.13;;;1.42;;
74945;SDS011;63509;45.250;38.102;2023-07-20T14:29:03;4.35;;;1.52;;
74945;SDS011;63509;45.250;38.102;2023-07-20T14:31:29;6.85;;;1.70;;
74945;SDS011;63509;45.250;38.102;2023-07-20T14:33:56;2.05;;;0.90;;
74945;SDS011;63509;45.250;38.102;2023-07-20T14:36:22;2.70;;;1.23;;
74945;SDS011;63509;45.250;38.102;2023-07-20T14:38:48;6.60;;;1.30;;
74945;SDS011;63509;45.250;38.102;2023-07-20T14:41:14;2.72;;;1.13;;
74945;SDS011;63509;45.250;38.102;2023-07-20T14:43:41;8.57;;;1.52;;
74945;SDS011;63509;45.250;38.102;2023-07-20T14:46:07;11.48;;;1.67;;
74945;SDS011;63509;45.250;38.102;2023-07-20T14:48:33;6.88;;;1.17;;
74945;SDS011;63509;45.250;38.102;2023-07-20T14:50:59;2.65;;;1.20;;
74945;SDS011;63509;45.250;38.102;2023-07-20T14:53:25;13.38;;;1.80;;
74945;SDS011;63509;45.250;38.102;2023-07-20T14:55:57;4.32;;;1.67;;
74945;SDS011;63509;45.250;38.102;2023-07-20T14:58:25;3.70;;;0.98;;